Time;durP1;ratioP1;P1;durP2;ratioP2;P2;SDS_P1;SDS_P2;PMS_P1;PMS_P2;Temp;Humidity;BMP_temperature;BMP_pressure;BME280_temperature;BME280_humidity;BME280_pressure;Samples;Min_cycle;Max_cycle;Signal;HPM_P1;HPM_P2
2023/07/29 00:03:39;;;;;;;5.10;2.50;;;;;;;20.77;53.91;99822.27;108456;1256;59274;-96
2023/07/29 00:10:35;;;;;;;5.30;2.70;;;;;;;20.73;54.15;99816.02;107604;1256;65186;-94
2023/07/29 00:13:57;;;;;;;;;;;;;;;;;;;;;
2023/07/29 00:17:46;;;;;;;5.10;2.70;;;;;;;20.71;53.68;99811.11;107867;1256;63835;-95
2023/07/29 00:21:05;;;;;;;5.20;2.60;;;;;;;20.72;53.79;99811.85;107500;1260;59105;-96
2023/07/29 00:23:50;;;;;;;5.30;2.80;;;;;;;20.70;53.87;99815.34;108988;1255;57443;-93
2023/07/29 00:26:36;;;;;;;4.80;2.80;;;;;;;20.69;53.95;99814.80;107472;1256;73362;-94
2023/07/29 00:29:41;;;;;;;4.50;2.50;;;;;;;20.69;54.59;99815.17;107200;1256;61382;-96
2023/07/29 00:32:44;;;;;;;6.00;3.00;;;;;;;20.70;54.76;99817.31;107888;1251;63038;-94
2023/07/29 00:35:46;;;;;;;5.90;2.70;;;;;;;20.75;55.07;99812.42;107957;1257;61064;-96
2023/07/29 00:38:44;;;;;;;5.90;3.10;;;;;;;20.80;55.11;99810.26;108209;1251;59276;-96
2023/07/29 00:41:15;;;;;;;6.30;3.10;;;;;;;20.83;54.35;99811.33;108357;1250;64124;-94
2023/07/29 00:43:43;;;;;;;7.50;3.40;;;;;;;20.87;53.96;99806.40;108044;1253;60165;-94
2023/07/29 00:46:39;;;;;;;6.20;3.70;;;;;;;20.91;53.70;99803.98;108527;1253;63182;-95
2023/07/29 00:49:35;;;;;;;7.30;3.50;;;;;;;20.98;53.27;99804.55;108096;1255;60988;-94
2023/07/29 00:52:06;;;;;;;6.10;3.80;;;;;;;21.00;52.93;99801.21;107983;1253;59740;-94
2023/07/29 00:54:34;;;;;;;6.00;3.40;;;;;;;20.98;52.95;99801.64;108480;1253;64954;-90
2023/07/29 00:57:03;;;;;;;7.80;4.10;;;;;;;20.93;52.85;99805.66;108631;1255;60956;-92
2023/07/29 00:59:31;;;;;;;6.40;3.60;;;;;;;20.88;52.97;99803.55;108375;1257;63771;-92
2023/07/29 01:01:59;;;;;;;6.40;3.60;;;;;;;20.83;53.13;99802.27;108232;1256;59644;-94
2023/07/29 01:04:27;;;;;;;6.40;3.50;;;;;;;20.78;53.34;99801.33;108543;1255;57535;-94
2023/07/29 01:07:07;;;;;;;6.00;3.40;;;;;;;20.75;53.53;99803.30;108501;1253;66099;-93
2023/07/29 01:09:58;;;;;;;7.70;3.70;;;;;;;20.73;53.58;99803.02;108485;1252;61538;-94
2023/07/29 01:12:40;;;;;;;6.60;3.50;;;;;;;20.73;53.71;99805.20;108495;1252;62553;-93
2023/07/29 01:15:36;;;;;;;6.80;3.80;;;;;;;20.72;53.94;99809.42;107975;1253;57843;-93
2023/07/29 01:18:09;;;;;;;6.00;3.70;;;;;;;20.70;54.00;99811.68;108270;1251;59578;-92
2023/07/29 01:20:40;;;;;;;7.00;3.30;;;;;;;20.69;54.28;99808.60;108227;1252;62894;-94
2023/07/29 01:23:25;;;;;;;7.30;3.40;;;;;;;20.72;54.38;99808.90;107983;1252;62255;-93
2023/07/29 01:26:03;;;;;;;6.10;3.20;;;;;;;20.79;54.34;99805.48;107789;1253;64118;-94
2023/07/29 01:28:31;;;;;;;6.70;3.50;;;;;;;20.84;54.44;99807.84;107948;1253;59619;-94
2023/07/29 01:31:40;;;;;;;5.10;3.00;;;;;;;20.87;54.24;99810.98;108331;1256;59533;-92
2023/07/29 01:35:07;;;;;;;7.90;3.60;;;;;;;20.88;54.32;99812.08;108418;1253;64588;-93
2023/07/29 01:37:39;;;;;;;5.60;3.30;;;;;;;20.87;54.26;99809.23;108288;1253;71073;-94
2023/07/29 01:40:08;;;;;;;6.80;3.70;;;;;;;20.87;54.36;99813.19;108265;1258;63730;-94
2023/07/29 01:42:36;;;;;;;6.50;3.30;;;;;;;20.87;54.65;99812.94;107636;1255;59730;-93
2023/07/29 01:45:07;;;;;;;6.20;3.10;;;;;;;20.90;54.51;99815.25;107603;1253;60560;-93
2023/07/29 01:47:46;;;;;;;6.10;3.40;;;;;;;20.90;54.63;99814.27;108475;1253;64123;-94
2023/07/29 01:50:34;;;;;;;6.50;3.50;;;;;;;20.90;54.70;99814.96;108466;1253;60596;-95
2023/07/29 01:53:05;;;;;;;6.00;3.50;;;;;;;20.91;54.69;99817.27;108557;1253;63762;-93
2023/07/29 01:55:42;;;;;;;8.50;3.80;;;;;;;20.91;54.75;99815.79;108206;1258;57711;-93
2023/07/29 02:01:31;;;;;;;5.50;3.00;;;;;;;21.03;54.73;99819.45;108526;1253;64248;-94
2023/07/29 02:04:02;;;;;;;7.30;3.30;;;;;;;21.07;54.77;99821.60;108412;1252;60263;-94
2023/07/29 02:06:59;;;;;;;5.00;2.90;;;;;;;21.06;54.49;99822.41;108213;1253;63966;-95
2023/07/29 02:09:42;;;;;;;7.40;3.50;;;;;;;21.05;54.62;99820.15;108151;1253;60003;-94
2023/07/29 02:12:10;;;;;;;8.80;3.50;;;;;;;21.07;54.73;99823.66;108379;1252;59208;-94
2023/07/29 02:14:48;;;;;;;5.40;3.00;;;;;;;21.07;54.71;99828.09;108075;1253;62939;-93
2023/07/29 02:17:19;;;;;;;7.30;3.50;;;;;;;21.07;54.64;99828.80;108026;1252;60845;-94
2023/07/29 02:19:50;;;;;;;7.10;3.40;;;;;;;21.06;54.66;99826.30;107478;1253;62513;-94
2023/07/29 02:22:18;;;;;;;7.70;3.60;;;;;;;21.02;54.61;99823.93;107458;1253;59108;-93
2023/07/29 02:24:56;;;;;;;5.10;3.20;;;;;;;20.99;54.75;99822.63;107865;1253;59786;-94
2023/07/29 02:27:26;;;;;;;6.80;3.50;;;;;;;20.98;54.96;99823.81;107928;1253;64087;-93
2023/07/29 02:29:57;;;;;;;6.80;2.90;;;;;;;20.96;54.96;99820.94;107897;1253;61939;-94
2023/07/29 02:32:25;;;;;;;5.50;3.00;;;;;;;20.98;55.00;99819.50;108530;1253;74859;-93
2023/07/29 02:35:00;;;;;;;6.00;3.20;;;;;;;21.00;55.03;99816.40;108053;1259;59631;-95
2023/07/29 02:37:37;;;;;;;7.80;3.70;;;;;;;21.03;55.15;99820.15;108327;1253;57866;-95
2023/07/29 02:40:11;;;;;;;6.00;3.70;;;;;;;21.05;55.21;99820.52;107730;1253;63432;-93
2023/07/29 02:42:45;;;;;;;5.30;3.20;;;;;;;21.05;54.99;99823.95;107995;1259;62621;-93
2023/07/29 02:48:24;;;;;;;6.20;3.60;;;;;;;21.04;55.07;99826.74;107553;1252;59612;-95
2023/07/29 02:50:55;;;;;;;6.30;4.00;;;;;;;21.05;55.03;99827.69;107885;1253;59673;-94
2023/07/29 02:53:37;;;;;;;7.70;3.40;;;;;;;21.04;54.93;99834.19;107883;1253;64248;-94
2023/07/29 02:56:06;;;;;;;5.70;3.60;;;;;;;21.03;55.08;99839.04;108005;1253;60619;-94
2023/07/29 02:58:34;;;;;;;5.40;2.90;;;;;;;21.01;55.23;99836.45;108295;1253;64240;-93
2023/07/29 03:01:02;;;;;;;6.10;3.20;;;;;;;21.03;55.24;99837.17;108054;1253;59538;-92
2023/07/29 03:03:32;;;;;;;7.10;3.20;;;;;;;21.09;55.27;99836.73;108014;1253;59500;-93
2023/07/29 03:06:13;;;;;;;6.40;3.50;;;;;;;21.13;55.21;99841.72;108206;1253;73146;-93
2023/07/29 03:12:45;;;;;;;4.80;2.80;;;;;;;21.20;55.20;99836.16;107364;1259;63739;-93
2023/07/29 03:15:13;;;;;;;6.60;3.10;;;;;;;21.23;54.98;99835.93;107656;1258;57884;-94
2023/07/29 03:17:40;;;;;;;8.00;3.80;;;;;;;21.24;54.85;99836.75;108141;1253;59616;-93
2023/07/29 03:20:08;;;;;;;7.50;3.40;;;;;;;21.22;54.98;99842.50;108089;1253;64137;-95
2023/07/29 03:22:36;;;;;;;4.80;3.10;;;;;;;21.19;54.86;99840.77;108246;1253;60100;-94
2023/07/29 03:25:07;;;;;;;5.80;3.50;;;;;;;21.18;55.05;99844.64;107351;1260;62462;-91
2023/07/29 03:27:36;;;;;;;5.80;3.10;;;;;;;21.17;55.28;99846.05;107551;1255;59319;-93
2023/07/29 03:30:04;;;;;;;7.00;3.10;;;;;;;21.15;55.34;99847.61;107994;1253;59628;-93
2023/07/29 03:32:34;;;;;;;5.40;3.50;;;;;;;21.12;55.19;99853.62;107958;1253;62847;-94
2023/07/29 03:35:02;;;;;;;5.40;3.00;;;;;;;21.11;55.28;99852.55;108214;1253;61440;-94
2023/07/29 03:37:37;;;;;;;5.40;3.20;;;;;;;21.10;55.14;99851.68;108654;1253;66448;-95
2023/07/29 03:40:18;;;;;;;5.00;2.90;;;;;;;21.12;55.31;99849.42;107685;1253;59364;-95
2023/07/29 03:42:50;;;;;;;5.70;3.40;;;;;;;21.15;55.61;99850.61;108357;1253;57483;-93
2023/07/29 03:45:25;;;;;;;6.80;3.30;;;;;;;21.18;55.45;99850.41;108320;1253;63037;-94
2023/07/29 03:47:53;;;;;;;7.20;3.60;;;;;;;21.18;55.43;99846.86;108099;1253;61466;-93
2023/07/29 03:50:20;;;;;;;6.70;3.90;;;;;;;21.12;55.33;99842.95;107385;1253;63867;-93
2023/07/29 03:52:48;;;;;;;7.00;3.80;;;;;;;21.04;55.59;99843.86;107735;1257;59620;-93
2023/07/29 03:55:22;;;;;;;7.00;3.10;;;;;;;20.94;55.69;99843.73;108078;1252;59828;-93
2023/07/29 03:57:50;;;;;;;5.80;3.20;;;;;;;20.88;55.86;99843.30;107885;1253;64416;-93
2023/07/29 04:00:21;;;;;;;5.40;3.00;;;;;;;20.88;56.14;99848.16;108145;1253;60874;-96
2023/07/29 04:02:48;;;;;;;7.80;3.40;;;;;;;20.91;56.30;99848.23;107843;1253;63887;-95
2023/07/29 04:05:19;;;;;;;6.80;3.60;;;;;;;20.96;56.56;99846.89;108085;1254;60435;-93
2023/07/29 04:07:47;;;;;;;5.30;2.70;;;;;;;21.01;56.66;99855.87;108651;1253;60456;-94
2023/07/29 04:10:20;;;;;;;6.90;3.30;;;;;;;21.04;56.76;99853.86;109115;1253;64337;-95
2023/07/29 04:12:56;;;;;;;5.20;2.90;;;;;;;21.10;56.46;99852.17;108982;1253;60592;-95
2023/07/29 04:15:23;;;;;;;6.40;2.90;;;;;;;21.12;56.25;99858.85;108662;1258;64150;-92
2023/07/29 04:18:10;;;;;;;5.60;3.30;;;;;;;21.11;56.35;99859.34;108862;1253;60569;-96
2023/07/29 04:20:38;;;;;;;6.50;3.20;;;;;;;21.09;56.21;99858.85;108452;1253;58565;-95
2023/07/29 04:23:06;;;;;;;7.40;3.10;;;;;;;21.07;56.10;99853.95;107426;1252;64903;-93
2023/07/29 04:25:34;;;;;;;5.20;3.30;;;;;;;21.09;56.10;99851.77;107921;1253;61460;-94
2023/07/29 04:28:05;;;;;;;5.30;3.10;;;;;;;21.12;56.09;99852.46;107414;1260;63713;-95
2023/07/29 04:30:35;;;;;;;6.00;3.00;;;;;;;21.13;56.42;99852.83;108117;1257;59236;-94
2023/07/29 04:33:12;;;;;;;6.90;3.20;;;;;;;21.12;56.30;99855.80;108796;1251;58632;-95
2023/07/29 04:35:49;;;;;;;7.50;3.40;;;;;;;21.14;56.52;99855.05;109139;1253;64280;-94
2023/07/29 04:38:20;;;;;;;7.00;3.60;;;;;;;21.18;56.43;99855.27;109069;1252;60183;-94
2023/07/29 04:40:57;;;;;;;5.90;3.40;;;;;;;21.20;56.52;99855.75;108867;1254;64688;-94
2023/07/29 04:43:29;;;;;;;5.40;3.20;;;;;;;21.22;56.67;99858.52;108887;1256;58386;-93
2023/07/29 04:46:00;;;;;;;7.20;3.30;;;;;;;21.22;56.49;99859.67;108552;1254;58126;-95
2023/07/29 04:48:28;;;;;;;6.30;3.70;;;;;;;21.24;56.32;99859.96;107482;1256;63649;-95
2023/07/29 04:54:45;;;;;;;6.10;3.50;;;;;;;21.42;56.31;99864.11;109346;1254;63773;-96
2023/07/29 04:58:04;;;;;;;5.80;3.20;;;;;;;21.60;56.07;99860.34;107461;1249;73268;-58
2023/07/29 05:00:33;;;;;;;6.60;3.80;;;;;;;21.71;55.96;99859.75;105322;1261;60454;-56
2023/07/29 05:03:01;;;;;;;6.90;3.10;;;;;;;21.79;55.77;99859.31;105270;1261;64869;-57
2023/07/29 05:05:28;;;;;;;5.30;3.50;;;;;;;21.88;55.83;99861.58;105361;1256;60629;-55
2023/07/29 05:07:56;;;;;;;7.10;3.70;;;;;;;21.90;55.28;99860.90;105305;1257;63756;-56
2023/07/29 05:10:24;;;;;;;6.60;3.20;;;;;;;21.89;55.53;99857.99;105127;1257;60455;-56
2023/07/29 05:12:52;;;;;;;6.00;3.40;;;;;;;21.90;55.77;99855.84;105701;1258;60609;-53
2023/07/29 05:15:19;;;;;;;6.40;2.70;;;;;;;21.95;55.86;99860.27;105323;1255;65592;-53
2023/07/29 05:17:47;;;;;;;5.80;2.80;;;;;;;21.95;55.68;99862.34;105339;1261;60458;-49
2023/07/29 05:20:15;;;;;;;6.00;2.90;;;;;;;21.95;55.71;99858.09;105319;1261;63943;-48
2023/07/29 05:22:43;;;;;;;4.60;2.50;;;;;;;21.96;55.51;99855.95;105311;1256;60571;-50
2023/07/29 05:25:10;;;;;;;5.80;2.80;;;;;;;21.98;55.56;99853.27;105405;1260;60546;-50
2023/07/29 05:27:38;;;;;;;6.50;2.70;;;;;;;21.98;55.69;99856.07;105136;1255;65449;-48
2023/07/29 05:30:07;;;;;;;5.80;3.30;;;;;;;21.98;55.80;99856.83;105273;1261;60605;-47
2023/07/29 05:32:34;;;;;;;5.00;3.10;;;;;;;22.02;56.04;99859.21;105204;1259;63692;-48
2023/07/29 05:35:02;;;;;;;8.60;3.00;;;;;;;22.03;56.22;99857.29;105238;1256;60480;-48
2023/07/29 05:37:31;;;;;;;5.40;3.20;;;;;;;22.04;56.16;99855.59;105373;1256;60919;-49
2023/07/29 05:39:58;;;;;;;5.90;3.10;;;;;;;22.03;55.98;99851.35;105188;1259;63864;-49
2023/07/29 05:42:26;;;;;;;6.00;3.00;;;;;;;22.03;55.89;99856.34;105357;1263;61312;-50
2023/07/29 05:44:54;;;;;;;7.50;3.00;;;;;;;22.03;56.01;99859.95;106125;1260;62474;-50
2023/07/29 05:47:21;;;;;;;5.40;2.30;;;;;;;22.07;55.68;99861.10;105212;1264;60824;-56
2023/07/29 05:49:49;;;;;;;5.30;2.70;;;;;;;22.16;55.49;99861.94;105367;1259;60375;-56
2023/07/29 05:52:17;;;;;;;6.80;2.80;;;;;;;22.20;54.71;99865.34;105241;1256;64904;-54
2023/07/29 05:54:45;;;;;;;4.50;2.80;;;;;;;22.19;54.62;99863.11;104907;1260;61335;-54
2023/07/29 05:57:13;;;;;;;7.20;2.70;;;;;;;22.18;54.69;99864.86;105268;1258;63663;-56
2023/07/29 05:59:40;;;;;;;6.20;2.80;;;;;;;22.21;54.72;99869.72;105282;1256;60528;-52
2023/07/29 06:02:08;;;;;;;6.10;3.20;;;;;;;22.22;54.85;99862.63;105084;1257;60638;-52
2023/07/29 06:04:36;;;;;;;5.30;2.90;;;;;;;22.22;55.05;99859.11;105262;1259;65100;-53
2023/07/29 06:07:04;;;;;;;7.30;2.80;;;;;;;22.25;54.58;99862.36;105243;1261;60457;-57
2023/07/29 06:09:32;;;;;;;5.70;2.90;;;;;;;22.28;53.84;99859.48;105136;1259;63689;-51
2023/07/29 06:11:59;;;;;;;6.50;2.50;;;;;;;22.29;53.65;99863.69;105456;1257;60890;-51
2023/07/29 06:14:27;;;;;;;5.50;2.30;;;;;;;22.26;53.52;99861.45;105265;1261;60465;-54
2023/07/29 06:16:54;;;;;;;5.70;2.40;;;;;;;22.27;54.06;99858.12;105432;1261;64858;-55
2023/07/29 06:19:22;;;;;;;4.70;2.50;;;;;;;22.36;54.03;99860.08;105265;1261;61301;-53
2023/07/29 06:21:52;;;;;;;4.70;2.30;;;;;;;22.49;53.51;99857.83;105496;1260;71798;-50
2023/07/29 06:24:19;;;;;;;4.70;2.50;;;;;;;22.57;53.21;99855.77;105350;1259;60600;-50
2023/07/29 06:26:47;;;;;;;4.60;2.40;;;;;;;22.65;53.12;99854.28;105246;1258;60505;-50
2023/07/29 06:29:14;;;;;;;5.00;2.20;;;;;;;22.74;53.46;99857.53;105334;1258;64904;-50
2023/07/29 06:31:41;;;;;;;7.70;2.80;;;;;;;22.85;53.38;99858.66;105478;1259;63116;-51
2023/07/29 06:34:09;;;;;;;6.80;2.60;;;;;;;22.97;53.21;99858.61;105175;1262;64807;-50
2023/07/29 06:36:37;;;;;;;6.00;2.70;;;;;;;23.07;52.82;99858.08;105208;1256;60526;-52
2023/07/29 06:39:05;;;;;;;5.60;2.20;;;;;;;23.19;52.89;99857.86;105263;1259;60449;-49
2023/07/29 06:41:32;;;;;;;5.60;2.80;;;;;;;23.29;52.42;99859.98;105380;1260;64851;-49
2023/07/29 06:44:03;;;;;;;4.90;2.40;;;;;;;23.33;51.59;99859.90;105478;1256;61399;-48
2023/07/29 06:46:31;;;;;;;5.10;2.90;;;;;;;23.31;52.18;99857.94;105179;1260;62475;-48
2023/07/29 06:48:58;;;;;;;6.00;2.60;;;;;;;23.28;51.93;99857.67;105181;1260;60551;-49
2023/07/29 06:51:26;;;;;;;5.40;2.80;;;;;;;23.23;51.95;99855.90;105321;1260;60442;-54
2023/07/29 06:53:54;;;;;;;6.10;2.90;;;;;;;23.17;51.97;99859.16;105146;1261;65308;-54
2023/07/29 06:56:21;;;;;;;5.80;2.90;;;;;;;23.14;52.27;99854.86;105326;1261;61341;-51
2023/07/29 06:58:49;;;;;;;4.90;2.80;;;;;;;23.13;52.31;99851.56;105184;1262;63746;-55
2023/07/29 07:01:16;;;;;;;5.90;2.90;;;;;;;23.15;52.44;99849.98;105224;1256;60664;-53
2023/07/29 07:03:44;;;;;;;6.50;2.70;;;;;;;23.20;52.90;99848.45;105157;1256;60527;-52
2023/07/29 07:06:11;;;;;;;5.90;2.50;;;;;;;23.32;52.84;99851.20;105304;1261;73874;-50
2023/07/29 07:08:39;;;;;;;5.80;3.30;;;;;;;23.48;52.88;99853.33;105238;1261;61389;-54
2023/07/29 07:11:07;;;;;;;6.00;3.00;;;;;;;23.63;52.55;99852.33;105183;1257;63680;-51
2023/07/29 07:13:35;;;;;;;6.30;3.10;;;;;;;23.70;52.20;99856.05;105232;1259;60506;-50
2023/07/29 07:16:02;;;;;;;4.80;2.50;;;;;;;23.76;52.01;99858.54;105249;1261;60408;-51
2023/07/29 07:18:30;;;;;;;5.10;3.00;;;;;;;23.80;51.94;99853.06;105258;1262;63705;-50
2023/07/29 07:20:57;;;;;;;5.20;2.50;;;;;;;23.87;51.99;99855.38;105200;1261;61451;-54
2023/07/29 07:23:25;;;;;;;5.30;3.00;;;;;;;23.95;51.77;99859.17;105119;1261;65014;-50
2023/07/29 07:25:52;;;;;;;5.20;2.60;;;;;;;24.03;50.99;99857.30;105350;1257;60565;-47
2023/07/29 07:28:20;;;;;;;4.00;2.10;;;;;;;24.10;51.21;99856.31;105128;1262;61206;-51
2023/07/29 07:30:47;;;;;;;5.00;2.80;;;;;;;24.18;50.74;99860.27;105250;1261;64953;-50
2023/07/29 07:33:15;;;;;;;6.00;3.40;;;;;;;24.21;50.76;99858.29;105266;1255;61602;-50
2023/07/29 07:35:42;;;;;;;5.30;2.60;;;;;;;24.24;51.40;99860.27;105167;1260;63690;-50
2023/07/29 07:38:10;;;;;;;5.80;3.10;;;;;;;24.33;51.76;99858.90;105200;1262;60454;-51
2023/07/29 07:40:37;;;;;;;6.30;3.30;;;;;;;24.40;51.35;99857.60;105319;1259;60562;-50
2023/07/29 07:43:05;;;;;;;5.60;3.00;;;;;;;24.43;50.97;99857.48;105220;1262;64938;-51
2023/07/29 07:45:32;;;;;;;6.90;3.20;;;;;;;24.40;50.46;99859.22;105294;1260;61472;-50
2023/07/29 07:48:00;;;;;;;4.80;2.70;;;;;;;24.30;50.58;99854.88;105095;1258;63732;-50
2023/07/29 07:50:29;;;;;;;5.60;2.90;;;;;;;24.25;51.48;99850.63;108978;1255;58121;-49
2023/07/29 07:52:57;;;;;;;5.20;2.80;;;;;;;24.28;52.19;99847.33;109024;1255;58309;-49
2023/07/29 07:55:24;;;;;;;5.30;2.90;;;;;;;24.40;51.78;99846.56;108096;1261;64905;-50
2023/07/29 07:57:52;;;;;;;8.00;3.00;;;;;;;24.50;51.10;99840.55;105138;1261;70686;-50
2023/07/29 08:00:19;;;;;;;5.30;3.00;;;;;;;24.60;50.80;99844.24;104937;1259;63758;-55
2023/07/29 08:02:47;;;;;;;5.40;2.90;;;;;;;24.70;50.52;99840.63;107499;1260;59320;-54
2023/07/29 08:05:15;;;;;;;5.60;3.20;;;;;;;24.76;50.30;99836.25;105296;1263;60426;-55
2023/07/29 08:07:42;;;;;;;5.00;2.90;;;;;;;24.81;50.74;99835.95;105259;1261;64865;-56
2023/07/29 08:10:10;;;;;;;7.00;2.80;;;;;;;24.94;50.80;99838.66;105203;1256;61862;-55
2023/07/29 08:12:37;;;;;;;4.90;2.60;;;;;;;25.05;49.91;99847.81;105370;1259;63770;-55
2023/07/29 08:15:05;;;;;;;6.10;3.00;;;;;;;25.07;49.54;99846.30;105357;1260;60474;-55
2023/07/29 08:17:33;;;;;;;4.90;2.70;;;;;;;25.06;49.47;99845.78;105567;1262;61978;-54
2023/07/29 08:20:00;;;;;;;6.70;3.10;;;;;;;25.04;49.57;99845.63;105111;1257;64928;-55
2023/07/29 08:22:28;;;;;;;5.30;2.60;;;;;;;25.03;49.75;99843.36;105360;1260;62096;-56
2023/07/29 08:24:55;;;;;;;5.30;2.60;;;;;;;25.06;49.91;99841.95;105314;1260;63821;-55
2023/07/29 08:27:23;;;;;;;5.40;3.20;;;;;;;25.10;49.72;99845.62;105310;1258;60523;-57
2023/07/29 08:29:50;;;;;;;4.50;2.50;;;;;;;25.15;49.27;99847.23;105385;1257;60552;-55
2023/07/29 08:32:18;;;;;;;8.10;2.70;;;;;;;25.16;49.05;99844.86;105321;1265;64873;-55
2023/07/29 08:34:45;;;;;;;5.40;2.80;;;;;;;25.21;48.73;99839.52;105270;1261;61316;-55
2023/07/29 08:37:13;;;;;;;5.80;2.40;;;;;;;25.23;48.98;99833.82;105478;1259;63840;-55
2023/07/29 08:39:40;;;;;;;5.40;2.70;;;;;;;25.27;49.17;99835.00;105221;1259;60562;-54
2023/07/29 08:42:11;;;;;;;5.80;3.00;;;;;;;25.30;49.29;99834.10;105313;1261;60422;-50
2023/07/29 08:44:41;;;;;;;8.30;3.20;;;;;;;25.24;49.23;99838.80;105002;1264;65091;-53
2023/07/29 08:47:09;;;;;;;5.60;2.80;;;;;;;25.18;49.06;99838.04;105237;1260;60414;-51
2023/07/29 08:49:36;;;;;;;5.30;2.90;;;;;;;25.13;49.22;99830.30;105372;1261;63730;-51
2023/07/29 08:52:06;;;;;;;4.70;2.60;;;;;;;25.15;49.55;99828.46;105860;1260;60499;-52
2023/07/29 08:54:33;;;;;;;5.10;3.10;;;;;;;25.22;49.45;99831.80;105322;1262;60361;-51
2023/07/29 08:57:01;;;;;;;5.80;2.80;;;;;;;25.29;48.96;99827.41;105231;1260;63765;-52
2023/07/29 08:59:28;;;;;;;6.20;3.20;;;;;;;25.33;49.02;99829.39;105284;1254;61357;-50
2023/07/29 09:01:57;;;;;;;8.70;3.40;;;;;;;25.35;49.34;99826.10;105272;1262;62470;-51
2023/07/29 09:04:25;;;;;;;5.10;2.90;;;;;;;25.36;49.93;99825.80;105059;1262;61671;-56
2023/07/29 09:06:52;;;;;;;6.30;3.30;;;;;;;25.41;50.14;99830.52;105324;1261;60883;-54
2023/07/29 09:09:20;;;;;;;4.90;2.90;;;;;;;25.46;49.05;99828.73;105290;1261;64963;-55
2023/07/29 09:11:48;;;;;;;5.70;3.00;;;;;;;25.48;48.48;99822.09;105416;1260;61378;-57
2023/07/29 09:14:16;;;;;;;4.50;2.70;;;;;;;25.53;49.02;99821.02;105785;1261;63735;-54
2023/07/29 09:16:43;;;;;;;5.20;3.20;;;;;;;25.61;48.78;99817.48;105193;1256;60503;-55
2023/07/29 09:19:11;;;;;;;5.30;3.10;;;;;;;25.69;48.45;99816.46;105243;1257;60516;-52
2023/07/29 09:21:39;;;;;;;5.90;3.30;;;;;;;25.77;48.02;99811.08;105261;1262;64879;-54
2023/07/29 09:24:07;;;;;;;4.70;2.70;;;;;;;25.84;48.46;99810.62;105750;1262;60975;-55
2023/07/29 09:26:35;;;;;;;4.80;2.80;;;;;;;25.91;48.28;99804.30;105367;1258;63885;-56
2023/07/29 09:29:03;;;;;;;7.30;3.20;;;;;;;25.99;48.15;99802.62;105227;1258;60567;-59
2023/07/29 09:31:31;;;;;;;5.80;2.80;;;;;;;26.10;48.41;99805.85;105264;1261;60848;-56
2023/07/29 09:33:59;;;;;;;6.30;2.60;;;;;;;26.23;47.81;99807.13;105230;1256;72995;-56
2023/07/29 09:36:27;;;;;;;4.80;2.50;;;;;;;26.31;47.39;99809.28;105481;1254;60465;-56
2023/07/29 09:38:55;;;;;;;4.70;2.50;;;;;;;26.36;47.12;99817.83;105329;1261;63756;-56
2023/07/29 09:41:24;;;;;;;5.10;2.60;;;;;;;26.34;46.76;99812.79;105291;1260;60501;-57
2023/07/29 09:43:57;;;;;;;6.90;2.70;;;;;;;26.28;46.86;99819.77;105342;1257;60398;-58
2023/07/29 09:46:26;;;;;;;5.10;2.70;;;;;;;26.23;47.00;99809.27;105458;1255;64633;-56
2023/07/29 09:48:57;;;;;;;5.30;2.20;;;;;;;26.26;47.42;99809.46;105305;1259;60414;-55
2023/07/29 09:51:24;;;;;;;5.80;2.90;;;;;;;26.37;47.02;99808.48;105317;1261;63792;-59
2023/07/29 09:53:52;;;;;;;4.80;2.60;;;;;;;26.44;46.49;99803.52;105274;1263;60565;-56
2023/07/29 09:56:25;;;;;;;5.40;2.30;;;;;;;26.47;46.87;99806.87;105239;1261;60367;-57
2023/07/29 09:58:53;;;;;;;5.30;2.40;;;;;;;26.51;46.81;99799.98;105302;1263;64992;-56
2023/07/29 10:01:21;;;;;;;4.70;2.30;;;;;;;26.51;46.68;99803.29;105230;1261;61322;-58
2023/07/29 10:03:48;;;;;;;4.50;2.40;;;;;;;26.49;46.66;99808.27;105284;1262;63907;-54
2023/07/29 10:06:16;;;;;;;7.40;2.90;;;;;;;26.44;47.07;99814.37;105240;1261;60567;-55
2023/07/29 10:08:44;;;;;;;4.50;2.80;;;;;;;26.33;47.34;99816.27;105236;1262;60602;-55
2023/07/29 10:11:11;;;;;;;6.40;2.60;;;;;;;26.20;47.16;99811.39;104996;1264;64966;-57
2023/07/29 10:13:39;;;;;;;4.40;2.50;;;;;;;26.12;47.74;99811.33;105366;1257;61539;-56
2023/07/29 10:16:07;;;;;;;7.90;2.80;;;;;;;26.08;48.31;99808.08;105252;1261;62491;-55
2023/07/29 10:18:34;;;;;;;5.50;2.50;;;;;;;26.17;48.31;99806.52;105244;1262;60424;-56
2023/07/29 10:21:02;;;;;;;6.20;2.50;;;;;;;26.29;47.76;99798.30;105353;1257;60468;-55
2023/07/29 10:23:38;;;;;;;6.90;2.70;;;;;;;26.41;47.19;99799.11;105369;1260;63650;-56
2023/07/29 10:26:06;;;;;;;5.50;2.10;;;;;;;26.50;47.14;99797.16;105135;1263;61722;-58
2023/07/29 10:28:34;;;;;;;4.10;2.10;;;;;;;26.62;47.04;99798.52;105009;1263;63718;-56
2023/07/29 10:31:02;;;;;;;5.20;2.60;;;;;;;26.78;45.49;99797.35;105342;1257;60577;-55
2023/07/29 10:33:29;;;;;;;4.00;1.90;;;;;;;26.86;44.47;99793.79;105192;1267;60417;-55
2023/07/29 10:35:57;;;;;;;3.30;1.60;;;;;;;26.88;44.15;99792.95;105541;1260;65914;-55
2023/07/29 10:38:25;;;;;;;4.80;2.30;;;;;;;26.91;44.42;99794.27;105256;1258;61321;-56
2023/07/29 10:40:56;;;;;;;5.10;2.30;;;;;;;26.91;44.79;99797.83;105137;1264;62959;-55
2023/07/29 10:43:35;;;;;;;4.30;1.90;;;;;;;26.91;45.04;99794.33;105394;1259;61215;-56
2023/07/29 10:46:17;;;;;;;4.50;2.10;;;;;;;26.93;45.48;99795.48;105476;1261;60506;-57
2023/07/29 10:48:51;;;;;;;4.80;2.50;;;;;;;27.03;45.36;99801.05;105340;1257;64936;-56
2023/07/29 10:51:35;;;;;;;4.50;2.30;;;;;;;27.14;45.02;99795.23;105427;1265;61343;-57
2023/07/29 10:54:10;;;;;;;4.70;2.30;;;;;;;27.25;44.67;99797.73;105273;1258;63667;-51
2023/07/29 10:56:47;;;;;;;4.00;2.00;;;;;;;27.36;44.53;99792.23;106807;1257;60443;-49
2023/07/29 10:59:16;;;;;;;4.70;2.30;;;;;;;27.47;44.45;99789.53;105414;1261;60468;-52
2023/07/29 11:02:12;;;;;;;5.70;2.30;;;;;;;27.56;44.29;99790.36;105240;1260;64959;-49
2023/07/29 11:05:00;;;;;;;4.20;2.00;;;;;;;27.62;43.89;99795.61;105391;1258;61393;-52
2023/07/29 11:07:28;;;;;;;6.70;2.60;;;;;;;27.69;44.25;99791.02;105122;1257;62490;-49
2023/07/29 11:10:02;;;;;;;4.10;2.30;;;;;;;27.78;44.08;99788.09;105009;1261;60574;-55
2023/07/29 11:12:39;;;;;;;5.30;2.10;;;;;;;27.87;43.45;99782.09;105407;1260;60443;-52
2023/07/29 11:15:09;;;;;;;4.20;2.00;;;;;;;27.95;42.73;99781.40;105187;1260;64924;-48
2023/07/29 11:17:42;;;;;;;5.60;2.10;;;;;;;28.06;43.28;99780.50;105165;1257;61369;-49
2023/07/29 11:20:10;;;;;;;4.10;2.40;;;;;;;28.21;43.44;99783.59;105169;1257;64386;-51
2023/07/29 11:22:38;;;;;;;4.50;2.10;;;;;;;28.34;42.98;99776.97;105111;1258;60577;-49
2023/07/29 11:25:07;;;;;;;4.80;2.30;;;;;;;28.46;43.15;99777.02;105318;1256;60493;-52
2023/07/29 11:27:35;;;;;;;5.20;2.20;;;;;;;28.59;42.90;99774.89;105292;1261;64950;-50
2023/07/29 11:30:10;;;;;;;6.80;2.10;;;;;;;28.68;42.12;99767.95;105594;1257;61709;-49
2023/07/29 11:32:39;;;;;;;4.60;1.90;;;;;;;28.74;41.09;99769.23;105324;1261;63758;-49
2023/07/29 11:35:11;;;;;;;5.10;1.90;;;;;;;28.81;41.34;99763.82;105180;1257;60391;-51
2023/07/29 11:37:39;;;;;;;4.20;1.90;;;;;;;28.89;41.41;99764.00;105382;1257;60378;-53
2023/07/29 11:40:10;;;;;;;4.50;1.90;;;;;;;28.98;40.82;99766.55;105233;1261;65388;-52
2023/07/29 11:42:37;;;;;;;5.50;2.30;;;;;;;29.00;40.87;99762.27;105176;1261;60530;-56
2023/07/29 11:45:06;;;;;;;5.10;2.30;;;;;;;29.03;40.81;99772.48;105096;1261;362986;-53
2023/07/29 12:00:56;;;;;;;3.90;1.70;;;;;;;28.98;40.30;99774.80;102745;1287;607565;-52
2023/07/29 12:03:23;;;;;;;4.30;2.10;;;;;;;29.35;39.22;99770.66;105151;1264;118245;-55
2023/07/29 12:05:50;;;;;;;3.90;1.60;;;;;;;29.28;38.90;99771.27;104735;1270;59272;-53
2023/07/29 12:08:16;;;;;;;5.20;1.80;;;;;;;29.16;39.00;99769.50;104764;1267;59263;-53
2023/07/29 12:10:43;;;;;;;4.60;2.20;;;;;;;29.03;39.88;99768.10;104526;1269;61327;-52
2023/07/29 12:13:10;;;;;;;3.90;1.80;;;;;;;28.95;40.61;99771.07;104738;1269;63804;-49
2023/07/29 12:15:37;;;;;;;3.90;1.90;;;;;;;28.85;40.64;99775.55;104534;1266;59339;-51
2023/07/29 12:18:04;;;;;;;4.20;1.90;;;;;;;28.76;41.14;99772.83;104486;1267;59295;-51
2023/07/29 12:20:31;;;;;;;4.60;1.90;;;;;;;28.72;40.97;99773.06;105209;1268;63612;-52
2023/07/29 12:23:01;;;;;;;4.60;2.40;;;;;;;28.71;41.32;99771.77;104867;1269;61965;-51